createdAt,value
2019-02-12T00:00:14.126Z,952.13
2019-02-12T00:01:21.899Z,952.13
2019-02-12T00:02:30.084Z,952.09
2019-02-12T00:03:38.077Z,952.11
2019-02-12T00:04:46.114Z,952.17
2019-02-12T00:05:54.145Z,952.19
2019-02-12T00:07:02.154Z,952.21
2019-02-12T00:08:10.235Z,952.23
2019-02-12T00:09:18.356Z,952.24
2019-02-12T00:10:26.345Z,952.27
2019-02-12T00:11:34.422Z,952.27
2019-02-12T00:12:42.479Z,952.28
2019-02-12T00:13:50.569Z,952.23
2019-02-12T00:14:58.585Z,952.31
2019-02-12T00:16:06.639Z,952.34
2019-02-12T00:17:14.712Z,952.34
2019-02-12T00:18:22.853Z,952.36
2019-02-12T00:19:30.858Z,952.36
2019-02-12T00:20:38.853Z,952.39
2019-02-12T00:21:46.906Z,952.44
2019-02-12T00:22:54.940Z,952.44
2019-02-12T00:24:03.046Z,952.46
2019-02-12T00:25:11.070Z,952.49
2019-02-12T00:26:19.118Z,952.47
2019-02-12T00:27:27.171Z,952.46
2019-02-12T00:28:35.223Z,952.42
2019-02-12T00:29:43.331Z,952.44
2019-02-12T00:30:51.333Z,952.43
2019-02-12T00:31:59.397Z,952.42
2019-02-12T00:33:07.446Z,952.44
2019-02-12T00:34:15.835Z,952.41
2019-02-12T00:35:23.559Z,952.44
2019-02-12T00:36:31.622Z,952.46
2019-02-12T00:37:39.677Z,952.44
2019-02-12T00:38:47.749Z,952.48
2019-02-12T00:39:55.826Z,952.55
2019-02-12T00:41:03.831Z,952.58
2019-02-12T00:42:12.898Z,952.65
2019-02-12T00:43:19.956Z,952.66
2019-02-12T00:44:28.036Z,952.70
2019-02-12T00:45:36.062Z,952.67
2019-02-12T00:46:44.101Z,952.67
2019-02-12T00:47:52.149Z,952.75
2019-02-12T00:49:00.202Z,952.75
2019-02-12T00:50:08.855Z,952.76
2019-02-12T00:51:17.673Z,952.75
2019-02-12T00:52:24.429Z,952.79
2019-02-12T00:53:32.440Z,952.85
2019-02-12T00:54:40.531Z,952.82
2019-02-12T00:55:48.526Z,952.83
2019-02-12T00:56:56.589Z,952.84
2019-02-12T00:58:04.649Z,952.86
2019-02-12T00:59:13.126Z,952.86
2019-02-12T01:00:20.935Z,952.89
2019-02-12T01:01:28.962Z,952.86
2019-02-12T01:02:36.906Z,952.79
2019-02-12T01:03:44.929Z,952.79
2019-02-12T01:04:53.037Z,952.80
2019-02-12T01:06:01.126Z,952.85
2019-02-12T01:07:09.096Z,952.89
2019-02-12T01:08:17.150Z,952.92
2019-02-12T01:09:26.264Z,952.94
2019-02-12T01:10:33.654Z,952.98
2019-02-12T01:11:41.291Z,953.04
2019-02-12T01:12:49.368Z,953.09
2019-02-12T01:13:57.430Z,953.11
2019-02-12T01:15:05.568Z,953.16
2019-02-12T01:16:13.527Z,953.08
2019-02-12T01:17:21.571Z,953.08
2019-02-12T01:18:29.641Z,953.13
2019-02-12T01:19:37.695Z,953.10
2019-02-12T01:20:45.761Z,953.16
2019-02-12T01:21:53.901Z,953.13
2019-02-12T01:23:01.830Z,953.16
2019-02-12T01:24:09.947Z,953.14
2019-02-12T01:25:18.076Z,953.14
2019-02-12T01:26:26.011Z,953.15
2019-02-12T01:27:34.088Z,953.19
2019-02-12T01:28:42.112Z,953.23
2019-02-12T01:29:50.293Z,953.24
2019-02-12T01:30:58.252Z,953.24
2019-02-12T01:32:06.305Z,953.22
2019-02-12T01:33:14.336Z,953.22
2019-02-12T01:34:22.407Z,953.22
2019-02-12T01:35:30.549Z,953.27
2019-02-12T01:36:38.523Z,953.24
2019-02-12T01:37:46.617Z,953.28
2019-02-12T01:38:54.633Z,953.26
2019-02-12T01:40:02.783Z,953.26
2019-02-12T01:41:10.742Z,953.30
2019-02-12T01:42:18.782Z,953.32
2019-02-12T01:43:26.857Z,953.36
2019-02-12T01:44:34.909Z,953.35
2019-02-12T01:45:43.038Z,953.31
2019-02-12T01:46:51.008Z,953.32
2019-02-12T01:47:59.079Z,953.36
2019-02-12T01:49:07.145Z,953.37
2019-02-12T01:50:15.228Z,953.38
2019-02-12T01:51:23.239Z,953.40
2019-02-12T01:52:31.332Z,953.42
2019-02-12T01:53:39.351Z,953.42
2019-02-12T01:54:47.411Z,953.43
2019-02-12T01:55:55.663Z,953.43
2019-02-12T01:57:03.550Z,953.46
2019-02-12T01:58:11.546Z,953.44
2019-02-12T01:59:19.628Z,953.41
2019-02-12T02:00:27.733Z,953.43
2019-02-12T02:01:35.754Z,953.45
2019-02-12T02:02:43.822Z,953.48
2019-02-12T02:03:51.830Z,953.49
2019-02-12T02:04:59.910Z,953.54
2019-02-12T02:06:08.019Z,953.54
2019-02-12T02:07:16.007Z,953.52
2019-02-12T02:08:24.145Z,953.50
2019-02-12T02:09:32.137Z,953.49
2019-02-12T02:10:40.231Z,953.49
2019-02-12T02:11:48.260Z,953.49
2019-02-12T02:12:56.293Z,953.51
2019-02-12T02:14:04.342Z,953.45
2019-02-12T02:15:12.409Z,953.47
2019-02-12T02:16:20.513Z,953.44
2019-02-12T02:17:28.535Z,953.48
2019-02-12T02:18:36.614Z,953.50
2019-02-12T02:19:44.629Z,953.47
2019-02-12T02:20:52.747Z,953.49
2019-02-12T02:22:00.734Z,953.48
2019-02-12T02:23:08.895Z,953.45
2019-02-12T02:24:16.853Z,953.49
2019-02-12T02:25:24.904Z,953.49
2019-02-12T02:26:33.017Z,953.50
2019-02-12T02:27:41.029Z,953.51
2019-02-12T02:28:49.122Z,953.46
2019-02-12T02:29:57.147Z,953.49
2019-02-12T02:31:05.238Z,953.46
2019-02-12T02:32:13.255Z,953.46
2019-02-12T02:33:21.294Z,953.43
2019-02-12T02:34:29.382Z,953.49
2019-02-12T02:35:37.433Z,953.45
2019-02-12T02:36:45.508Z,953.47
2019-02-12T02:37:53.531Z,953.54
2019-02-12T02:39:01.664Z,953.55
2019-02-12T02:40:09.653Z,953.49
2019-02-12T02:41:17.728Z,953.50
2019-02-12T02:42:25.742Z,953.48
2019-02-12T02:43:33.812Z,953.47
2019-02-12T02:44:41.863Z,953.44
2019-02-12T02:45:49.926Z,953.42
2019-02-12T02:46:58.089Z,953.39
2019-02-12T02:48:06.030Z,953.39
2019-02-12T02:49:14.097Z,953.44
2019-02-12T02:50:22.129Z,953.43
2019-02-12T02:51:30.253Z,953.43
2019-02-12T02:52:38.255Z,953.42
2019-02-12T02:53:46.309Z,953.41
2019-02-12T02:54:54.459Z,953.41
2019-02-12T02:56:02.424Z,953.44
2019-02-12T02:57:10.487Z,953.45
2019-02-12T02:58:18.536Z,953.45
2019-02-12T02:59:26.594Z,953.52
2019-02-12T03:00:34.671Z,953.54
2019-02-12T03:01:42.754Z,953.55
2019-02-12T03:02:50.771Z,953.59
2019-02-12T03:03:58.822Z,953.61
2019-02-12T03:05:06.867Z,953.55
2019-02-12T03:06:14.924Z,953.52
2019-02-12T03:07:22.980Z,953.57
2019-02-12T03:08:31.039Z,953.58
2019-02-12T03:09:39.117Z,953.61
2019-02-12T03:10:47.247Z,953.62
2019-02-12T03:11:55.250Z,953.63
2019-02-12T03:13:03.286Z,953.61
2019-02-12T03:14:11.306Z,953.62
2019-02-12T03:15:19.386Z,953.60
2019-02-12T03:16:27.424Z,953.65
2019-02-12T03:17:35.501Z,953.72
2019-02-12T03:18:43.558Z,953.76
2019-02-12T03:19:51.577Z,953.76
2019-02-12T03:20:59.649Z,953.84
2019-02-12T03:22:07.764Z,953.85
2019-02-12T03:23:15.909Z,953.83
2019-02-12T03:24:23.814Z,953.84
2019-02-12T03:25:31.862Z,953.85
2019-02-12T03:26:40.018Z,953.83
2019-02-12T03:27:47.989Z,953.82
2019-02-12T03:28:56.044Z,953.78
2019-02-12T03:30:04.109Z,953.78
2019-02-12T03:31:12.153Z,953.80
2019-02-12T03:32:20.290Z,953.80
2019-02-12T03:33:28.285Z,953.73
2019-02-12T03:34:36.302Z,953.78
2019-02-12T03:35:44.382Z,953.75
2019-02-12T03:36:52.537Z,953.79
2019-02-12T03:38:00.482Z,953.79
2019-02-12T03:39:08.534Z,953.81
2019-02-12T03:40:16.586Z,953.82
2019-02-12T03:41:24.632Z,953.82
2019-02-12T03:42:32.801Z,953.87
2019-02-12T03:43:40.777Z,953.92
2019-02-12T03:44:48.806Z,953.94
2019-02-12T03:45:56.878Z,953.97
2019-02-12T03:47:04.980Z,953.94
2019-02-12T03:48:12.988Z,953.91
2019-02-12T03:49:21.022Z,953.90
2019-02-12T03:50:29.094Z,953.96
2019-02-12T03:51:37.145Z,954.00
2019-02-12T03:52:45.309Z,953.99
2019-02-12T03:53:53.275Z,953.97
2019-02-12T03:55:01.299Z,953.94
2019-02-12T03:56:09.389Z,953.96
2019-02-12T03:57:17.494Z,953.97
2019-02-12T03:58:25.464Z,954.02
2019-02-12T03:59:33.543Z,954.01
2019-02-12T04:00:41.561Z,954.01
2019-02-12T04:01:49.660Z,953.96
2019-02-12T04:02:57.808Z,954.01
2019-02-12T04:04:05.759Z,954.01
2019-02-12T04:05:13.803Z,954.03
2019-02-12T04:06:21.851Z,954.04
2019-02-12T04:07:29.983Z,954.05
2019-02-12T04:08:38.126Z,954.06
2019-02-12T04:09:46.049Z,954.05
2019-02-12T04:10:54.082Z,954.10
2019-02-12T04:12:02.138Z,954.13
2019-02-12T04:13:10.245Z,954.15
2019-02-12T04:14:18.278Z,954.22
2019-02-12T04:15:26.656Z,954.22
2019-02-12T04:16:34.670Z,954.23
2019-02-12T04:17:42.597Z,954.27
2019-02-12T04:18:51.063Z,954.26
2019-02-12T04:19:58.583Z,954.32
2019-02-12T04:21:06.593Z,954.30
2019-02-12T04:22:22.115Z,954.31
2019-02-12T04:23:22.774Z,954.34
2019-02-12T04:24:30.854Z,954.34
2019-02-12T04:25:38.816Z,954.34
2019-02-12T04:26:46.970Z,954.37
2019-02-12T04:27:55.453Z,954.38
2019-02-12T04:29:02.984Z,954.38
2019-02-12T04:30:11.052Z,954.37
2019-02-12T04:31:19.086Z,954.39
2019-02-12T04:32:27.173Z,954.41
2019-02-12T04:33:35.249Z,954.43
2019-02-12T04:34:43.268Z,954.45
2019-02-12T04:35:51.336Z,954.43
2019-02-12T04:36:59.386Z,954.44
2019-02-12T04:38:07.480Z,954.40
2019-02-12T04:39:15.496Z,954.39
2019-02-12T04:40:23.638Z,954.35
2019-02-12T04:41:31.596Z,954.39
2019-02-12T04:42:39.697Z,954.38
2019-02-12T04:43:47.768Z,954.31
2019-02-12T04:44:55.769Z,954.36
2019-02-12T04:46:03.823Z,954.30
2019-02-12T04:47:11.865Z,954.36
2019-02-12T04:48:19.999Z,954.38
2019-02-12T04:49:28.000Z,954.32
2019-02-12T04:50:36.062Z,954.30
2019-02-12T04:51:44.117Z,954.31
2019-02-12T04:52:52.172Z,954.26
2019-02-12T04:54:00.262Z,954.20
2019-02-12T04:55:08.283Z,954.20
2019-02-12T04:56:16.424Z,954.21
2019-02-12T04:57:24.378Z,954.22
2019-02-12T04:58:32.540Z,954.17
2019-02-12T04:59:40.481Z,954.25
2019-02-12T05:00:48.560Z,954.26
2019-02-12T05:01:56.606Z,954.24
2019-02-12T05:03:04.666Z,954.29
2019-02-12T05:04:12.727Z,954.28
2019-02-12T05:05:20.776Z,954.25
2019-02-12T05:06:28.839Z,954.27
2019-02-12T05:07:36.904Z,954.33
2019-02-12T05:08:45.004Z,954.23
2019-02-12T05:09:53.004Z,954.24
2019-02-12T05:11:01.055Z,954.26
2019-02-12T05:12:09.213Z,954.30
2019-02-12T05:13:17.180Z,954.32
2019-02-12T05:14:25.219Z,954.36
2019-02-12T05:15:33.315Z,954.31
2019-02-12T05:16:41.322Z,954.34
2019-02-12T05:17:49.393Z,954.31
2019-02-12T05:18:57.486Z,954.34
2019-02-12T05:20:05.499Z,954.37
2019-02-12T05:21:13.570Z,954.35
2019-02-12T05:22:21.703Z,954.32
2019-02-12T05:23:29.697Z,954.31
2019-02-12T05:24:37.728Z,954.28
2019-02-12T05:25:45.837Z,954.22
2019-02-12T05:26:53.850Z,954.20
2019-02-12T05:28:01.918Z,954.19
2019-02-12T05:29:10.003Z,954.25
2019-02-12T05:30:17.997Z,954.26
2019-02-12T05:31:26.064Z,954.26
2019-02-12T05:32:34.128Z,954.27
2019-02-12T05:33:42.297Z,954.28
2019-02-12T05:34:50.220Z,954.30
2019-02-12T05:35:58.313Z,954.31
2019-02-12T05:37:06.347Z,954.30
2019-02-12T05:38:14.405Z,954.32
2019-02-12T05:39:22.510Z,954.34
2019-02-12T05:40:30.502Z,954.33
2019-02-12T05:41:38.553Z,954.37
2019-02-12T05:42:46.666Z,954.37
2019-02-12T05:43:55.176Z,954.32
2019-02-12T05:45:02.715Z,954.35
2019-02-12T05:46:10.822Z,954.36
2019-02-12T05:47:18.848Z,954.37
2019-02-12T05:48:26.889Z,954.35
2019-02-12T05:49:35.049Z,954.33
2019-02-12T05:50:43.002Z,954.36
2019-02-12T05:51:51.062Z,954.39
2019-02-12T05:52:59.118Z,954.41
2019-02-12T05:54:07.246Z,954.43
2019-02-12T05:55:15.240Z,954.40
2019-02-12T05:56:23.291Z,954.42
2019-02-12T05:57:31.513Z,954.40
2019-02-12T05:58:39.388Z,954.41
2019-02-12T05:59:47.643Z,954.35
2019-02-12T06:00:55.503Z,954.33
2019-02-12T06:02:03.559Z,954.30
2019-02-12T06:03:11.624Z,954.30
2019-02-12T06:04:19.739Z,954.26
2019-02-12T06:05:27.738Z,954.28
2019-02-12T06:06:35.793Z,954.29
2019-02-12T06:07:43.849Z,954.32
2019-02-12T06:08:51.879Z,954.39
2019-02-12T06:10:00.072Z,954.37
2019-02-12T06:11:08.081Z,954.39
2019-02-12T06:12:16.079Z,954.39
2019-02-12T06:13:24.183Z,954.39
2019-02-12T06:14:32.233Z,954.33
2019-02-12T06:15:40.225Z,954.33
2019-02-12T06:16:48.294Z,954.35
2019-02-12T06:17:56.416Z,954.34
2019-02-12T06:19:04.387Z,954.40
2019-02-12T06:20:12.496Z,954.42
2019-02-12T06:21:20.536Z,954.37
2019-02-12T06:22:28.567Z,954.35
2019-02-12T06:23:36.635Z,954.33
2019-02-12T06:24:44.730Z,954.28
2019-02-12T06:25:52.743Z,954.29
2019-02-12T06:27:00.799Z,954.31
2019-02-12T06:28:08.857Z,954.29
2019-02-12T06:29:16.904Z,954.34
2019-02-12T06:30:25.061Z,954.35
2019-02-12T06:31:33.020Z,954.32
2019-02-12T06:32:41.084Z,954.38
2019-02-12T06:33:49.273Z,954.36
2019-02-12T06:34:57.244Z,954.38
2019-02-12T06:36:05.260Z,954.39
2019-02-12T06:37:13.308Z,954.38
2019-02-12T06:38:21.346Z,954.44
2019-02-12T06:39:29.401Z,954.43
2019-02-12T06:40:37.510Z,954.40
2019-02-12T06:41:45.561Z,954.45
2019-02-12T06:42:53.585Z,954.47
2019-02-12T06:44:01.600Z,954.47
2019-02-12T06:45:09.742Z,954.50
2019-02-12T06:46:17.764Z,954.55
2019-02-12T06:47:25.803Z,954.60
2019-02-12T06:48:33.855Z,954.60
2019-02-12T06:49:41.991Z,954.66
2019-02-12T06:50:50.031Z,954.67
2019-02-12T06:51:58.027Z,954.69
2019-02-12T06:53:12.217Z,954.67
2019-02-12T06:54:14.143Z,954.72
2019-02-12T06:55:22.308Z,954.75
2019-02-12T06:56:30.256Z,954.73
2019-02-12T06:57:38.386Z,954.73
2019-02-12T06:58:46.377Z,954.70
2019-02-12T06:59:54.396Z,954.71
2019-02-12T07:01:02.477Z,954.73
2019-02-12T07:02:10.541Z,954.74
2019-02-12T07:03:18.610Z,954.76
2019-02-12T07:04:26.663Z,954.76
2019-02-12T07:05:34.760Z,954.75
2019-02-12T07:06:42.748Z,954.80
2019-02-12T07:07:50.805Z,954.81
2019-02-12T07:08:58.909Z,954.79
2019-02-12T07:10:06.921Z,954.79
2019-02-12T07:11:14.987Z,954.83
2019-02-12T07:12:23.030Z,954.87
2019-02-12T07:13:31.086Z,954.83
2019-02-12T07:14:39.127Z,954.84
2019-02-12T07:15:47.234Z,954.87
2019-02-12T07:16:55.255Z,954.89
2019-02-12T07:18:03.626Z,954.89
2019-02-12T07:19:11.350Z,954.92
2019-02-12T07:20:19.408Z,954.92
2019-02-12T07:21:27.482Z,954.90
2019-02-12T07:22:35.526Z,954.93
2019-02-12T07:23:43.728Z,954.95
2019-02-12T07:24:51.734Z,954.89
2019-02-12T07:25:59.773Z,954.94
2019-02-12T07:27:07.750Z,954.88
2019-02-12T07:28:15.794Z,954.93
2019-02-12T07:29:23.866Z,954.96
2019-02-12T07:30:31.984Z,954.94
2019-02-12T07:31:39.993Z,954.97
2019-02-12T07:32:48.015Z,954.99
2019-02-12T07:33:56.085Z,955.00
2019-02-12T07:35:04.192Z,955.06
2019-02-12T07:36:12.215Z,955.08
2019-02-12T07:37:20.285Z,955.13
2019-02-12T07:38:28.293Z,955.15
2019-02-12T07:39:36.376Z,955.14
2019-02-12T07:40:44.514Z,955.17
2019-02-12T07:41:52.470Z,955.20
2019-02-12T07:43:00.823Z,955.22
2019-02-12T07:44:08.577Z,955.22
2019-02-12T07:45:16.650Z,955.25
2019-02-12T07:46:24.741Z,955.27
2019-02-12T07:47:32.755Z,955.32
2019-02-12T07:48:40.827Z,955.32
2019-02-12T07:49:48.863Z,955.37
2019-02-12T07:50:56.946Z,955.37
2019-02-12T07:52:04.962Z,955.37
2019-02-12T07:53:13.033Z,955.38
2019-02-12T07:54:21.094Z,955.36
2019-02-12T07:55:29.147Z,955.37
2019-02-12T07:56:37.298Z,955.39
2019-02-12T07:57:45.260Z,955.45
2019-02-12T07:58:53.301Z,955.50
2019-02-12T08:00:01.346Z,955.51
2019-02-12T08:01:09.445Z,955.63
2019-02-12T08:02:17.462Z,955.67
2019-02-12T08:03:25.604Z,955.72
2019-02-12T08:04:33.586Z,955.68
2019-02-12T08:05:41.615Z,955.65
2019-02-12T08:06:49.739Z,955.66
2019-02-12T08:07:57.747Z,955.63
2019-02-12T08:09:05.807Z,955.63
2019-02-12T08:10:15.348Z,955.63
2019-02-12T08:11:21.934Z,955.64
2019-02-12T08:12:30.014Z,955.72
2019-02-12T08:13:38.042Z,955.70
2019-02-12T08:14:46.092Z,955.68
2019-02-12T08:15:54.146Z,955.73
2019-02-12T08:17:02.259Z,955.79
2019-02-12T08:18:10.251Z,955.83
2019-02-12T08:19:18.289Z,955.91
2019-02-12T08:20:26.388Z,955.92
2019-02-12T08:21:34.474Z,955.97
2019-02-12T08:22:42.491Z,955.99
2019-02-12T08:23:50.699Z,955.97
2019-02-12T08:24:58.601Z,955.95
2019-02-12T08:26:06.646Z,955.99
2019-02-12T08:27:14.753Z,956.00
2019-02-12T08:28:22.849Z,955.95
2019-02-12T08:29:30.818Z,955.99
2019-02-12T08:30:38.895Z,956.06
2019-02-12T08:31:47.036Z,956.01
2019-02-12T08:32:54.991Z,956.02
2019-02-12T08:34:03.080Z,956.10
2019-02-12T08:35:11.102Z,956.09
2019-02-12T08:36:19.162Z,956.08
2019-02-12T08:37:27.324Z,956.11
2019-02-12T08:38:35.290Z,956.09
2019-02-12T08:39:43.350Z,956.16
2019-02-12T08:40:51.393Z,956.22
2019-02-12T08:41:59.496Z,956.19
2019-02-12T08:43:07.611Z,956.23
2019-02-12T08:44:15.566Z,956.26
2019-02-12T08:45:23.629Z,956.26
2019-02-12T08:46:31.661Z,956.26
2019-02-12T08:47:39.849Z,956.24
2019-02-12T08:48:47.799Z,956.27
2019-02-12T08:49:55.890Z,956.24
2019-02-12T08:51:03.940Z,956.30
2019-02-12T08:52:12.056Z,956.37
2019-02-12T08:53:20.035Z,956.31
2019-02-12T08:54:28.123Z,956.33
2019-02-12T08:55:36.854Z,956.34
2019-02-12T08:56:44.220Z,956.33
2019-02-12T08:57:52.377Z,956.35
2019-02-12T08:59:00.368Z,956.37
2019-02-12T09:00:08.421Z,956.43
2019-02-12T09:01:16.441Z,956.43
2019-02-12T09:02:24.558Z,956.41
2019-02-12T09:03:32.943Z,956.44
2019-02-12T09:04:40.746Z,956.44
2019-02-12T09:05:48.708Z,956.41
2019-02-12T09:06:56.735Z,956.44
2019-02-12T09:08:04.818Z,956.44
2019-02-12T09:09:12.858Z,956.48
2019-02-12T09:10:20.899Z,956.44
2019-02-12T09:11:28.972Z,956.49
2019-02-12T09:12:37.130Z,956.46
2019-02-12T09:13:45.219Z,956.47
2019-02-12T09:14:53.160Z,956.45
2019-02-12T09:16:01.188Z,956.52
2019-02-12T09:17:09.274Z,956.58
2019-02-12T09:18:17.318Z,956.58
2019-02-12T09:19:25.405Z,956.60
2019-02-12T09:20:33.435Z,956.56
2019-02-12T09:21:41.488Z,956.63
2019-02-12T09:22:49.652Z,956.72
2019-02-12T09:24:00.328Z,956.73
2019-02-12T09:25:05.674Z,956.74
2019-02-12T09:26:13.849Z,956.70
2019-02-12T09:27:21.892Z,956.67
2019-02-12T09:28:29.852Z,956.58
2019-02-12T09:29:38.106Z,956.57
2019-02-12T09:30:45.974Z,956.58
2019-02-12T09:31:54.030Z,956.63
2019-02-12T09:33:02.192Z,956.61
2019-02-12T09:34:10.151Z,956.60
2019-02-12T09:35:18.206Z,956.63
2019-02-12T09:36:26.274Z,956.69
2019-02-12T09:37:34.373Z,956.67
2019-02-12T09:38:42.388Z,956.73
2019-02-12T09:39:50.454Z,956.77
2019-02-12T09:40:58.504Z,956.78
2019-02-12T09:42:06.567Z,956.76
2019-02-12T09:43:14.675Z,956.74
2019-02-12T09:44:22.685Z,956.73
2019-02-12T09:45:30.853Z,956.68
2019-02-12T09:46:38.808Z,956.67
2019-02-12T09:47:46.954Z,956.70
2019-02-12T09:48:55.334Z,956.70
2019-02-12T09:50:02.971Z,956.70
2019-02-12T09:51:11.052Z,956.79
2019-02-12T09:52:19.101Z,956.86
2019-02-12T09:53:27.225Z,956.81
2019-02-12T09:54:35.217Z,956.81
2019-02-12T09:55:43.278Z,956.73
2019-02-12T09:56:51.335Z,956.76
2019-02-12T09:57:59.461Z,956.75
2019-02-12T09:59:07.465Z,956.68
2019-02-12T10:00:15.506Z,956.73
2019-02-12T10:01:23.676Z,956.78
2019-02-12T10:02:31.614Z,956.74
2019-02-12T10:03:39.818Z,956.79
2019-02-12T10:04:47.767Z,956.80
2019-02-12T10:05:55.825Z,956.75
2019-02-12T10:07:03.893Z,956.78
2019-02-12T10:08:12.017Z,956.83
2019-02-12T10:09:20.006Z,956.87
2019-02-12T10:10:28.071Z,956.89
2019-02-12T10:11:36.161Z,956.87
2019-02-12T10:12:44.197Z,956.87
2019-02-12T10:13:52.293Z,956.83
2019-02-12T10:15:00.316Z,956.84
2019-02-12T10:16:08.371Z,956.86
2019-02-12T10:17:16.521Z,956.89
2019-02-12T10:18:24.561Z,956.87
2019-02-12T10:19:32.550Z,956.85
2019-02-12T10:20:40.596Z,956.90
2019-02-12T10:21:48.673Z,956.90
2019-02-12T10:22:56.729Z,956.87
2019-02-12T10:24:04.869Z,956.83
2019-02-12T10:25:12.856Z,956.85
2019-02-12T10:26:20.915Z,956.84
2019-02-12T10:27:28.975Z,956.83
2019-02-12T10:28:37.489Z,956.86
2019-02-12T10:29:45.086Z,956.89
2019-02-12T10:30:53.157Z,956.92
2019-02-12T10:32:08.355Z,956.90
2019-02-12T10:33:09.420Z,956.94
2019-02-12T10:34:17.443Z,956.96
2019-02-12T10:35:25.554Z,956.96
2019-02-12T10:36:33.479Z,956.98
2019-02-12T10:37:41.504Z,956.96
2019-02-12T10:38:49.647Z,956.93
2019-02-12T10:39:57.651Z,956.93
2019-02-12T10:41:05.701Z,956.97
2019-02-12T10:42:13.767Z,956.99
2019-02-12T10:43:22.034Z,957.01
2019-02-12T10:44:29.940Z,957.01
2019-02-12T10:45:37.980Z,957.04
2019-02-12T10:46:46.053Z,957.09
2019-02-12T10:47:54.200Z,957.06
2019-02-12T10:49:02.230Z,957.04
2019-02-12T10:50:10.205Z,957.12
2019-02-12T10:51:18.263Z,957.11
2019-02-12T10:52:26.325Z,957.11
2019-02-12T10:53:34.391Z,957.14
2019-02-12T10:54:42.469Z,957.17
2019-02-12T10:55:50.500Z,957.19
2019-02-12T10:56:58.581Z,957.16
2019-02-12T10:58:08.514Z,957.18
2019-02-12T10:59:14.796Z,957.16
2019-02-12T11:00:22.749Z,957.16
2019-02-12T11:01:30.800Z,957.11
2019-02-12T11:02:38.978Z,957.09
2019-02-12T11:03:47.286Z,957.12
2019-02-12T11:04:55.432Z,957.06
2019-02-12T11:06:03.121Z,957.11
2019-02-12T11:07:11.147Z,957.12
2019-02-12T11:08:19.216Z,957.17
2019-02-12T11:09:27.309Z,957.13
2019-02-12T11:10:35.293Z,957.16
2019-02-12T11:11:43.383Z,957.14
2019-02-12T11:12:51.447Z,957.13
2019-02-12T11:13:59.495Z,957.11
2019-02-12T11:15:07.570Z,957.09
2019-02-12T11:16:15.620Z,957.07
2019-02-12T11:17:23.717Z,957.02
2019-02-12T11:18:31.787Z,957.01
2019-02-12T11:19:40.363Z,956.96
2019-02-12T11:20:47.869Z,956.96
2019-02-12T11:21:55.942Z,956.99
2019-02-12T11:23:04.001Z,956.96
2019-02-12T11:24:12.137Z,956.91
2019-02-12T11:25:20.124Z,956.93
2019-02-12T11:26:28.195Z,956.95
2019-02-12T11:27:36.234Z,956.96
2019-02-12T11:28:44.294Z,957.02
2019-02-12T11:29:52.418Z,956.98
2019-02-12T11:31:00.449Z,956.97
2019-02-12T11:32:08.495Z,956.99
2019-02-12T11:33:16.553Z,956.93
2019-02-12T11:34:24.707Z,956.91
2019-02-12T11:35:32.671Z,956.92
2019-02-12T11:36:40.726Z,956.89
2019-02-12T11:37:48.803Z,956.89
2019-02-12T11:38:56.857Z,956.87
2019-02-12T11:40:05.015Z,956.89
2019-02-12T11:41:12.975Z,956.93
2019-02-12T11:42:21.033Z,956.94
2019-02-12T11:43:29.093Z,956.89
2019-02-12T11:44:37.278Z,956.94
2019-02-12T11:45:45.215Z,956.93
2019-02-12T11:46:53.283Z,956.90
2019-02-12T11:48:01.341Z,956.88
2019-02-12T11:49:09.401Z,956.87
2019-02-12T11:50:17.563Z,956.90
2019-02-12T11:51:25.529Z,956.90
2019-02-12T11:52:33.582Z,956.89
2019-02-12T11:53:41.663Z,956.91
2019-02-12T11:54:49.762Z,956.88
2019-02-12T11:55:57.794Z,956.87
2019-02-12T11:57:05.860Z,956.86
2019-02-12T11:58:13.898Z,956.79
2019-02-12T11:59:21.965Z,956.81
2019-02-12T12:00:30.067Z,956.83
2019-02-12T12:01:38.103Z,956.83
2019-02-12T12:02:46.192Z,956.82
2019-02-12T12:03:54.191Z,956.82
2019-02-12T12:05:02.368Z,956.78
2019-02-12T12:06:10.430Z,956.77
2019-02-12T12:07:18.400Z,956.80
2019-02-12T12:08:26.457Z,956.81
2019-02-12T12:09:34.506Z,956.83
2019-02-12T12:10:42.662Z,956.85
2019-02-12T12:11:50.643Z,956.88
2019-02-12T12:12:58.697Z,956.84
2019-02-12T12:14:06.807Z,956.85
2019-02-12T12:15:14.870Z,956.86
2019-02-12T12:16:22.885Z,956.83
2019-02-12T12:17:30.953Z,956.86
2019-02-12T12:18:38.997Z,956.94
2019-02-12T12:19:47.074Z,956.90
2019-02-12T12:20:55.183Z,956.95
2019-02-12T12:22:03.285Z,956.90
2019-02-12T12:23:11.248Z,956.94
2019-02-12T12:24:19.309Z,956.96
2019-02-12T12:25:27.421Z,956.92
2019-02-12T12:26:35.439Z,956.93
2019-02-12T12:27:43.500Z,956.96
2019-02-12T12:28:51.545Z,956.89
2019-02-12T12:29:59.625Z,956.91
2019-02-12T12:31:07.733Z,956.87
2019-02-12T12:32:15.755Z,956.89
2019-02-12T12:33:23.806Z,956.87
2019-02-12T12:34:31.844Z,956.86
2019-02-12T12:35:39.966Z,956.85
2019-02-12T12:36:47.993Z,956.83
2019-02-12T12:37:56.148Z,956.84
2019-02-12T12:39:04.121Z,956.80
2019-02-12T12:40:12.148Z,956.81
2019-02-12T12:41:20.276Z,956.78
2019-02-12T12:42:28.278Z,956.80
2019-02-12T12:43:36.379Z,956.78
2019-02-12T12:44:44.403Z,956.73
2019-02-12T12:45:52.512Z,956.73
2019-02-12T12:47:00.562Z,956.72
2019-02-12T12:48:08.590Z,956.76
2019-02-12T12:49:16.654Z,956.76
2019-02-12T12:50:24.708Z,956.75
2019-02-12T12:51:32.876Z,956.79
2019-02-12T12:52:40.879Z,956.76
2019-02-12T12:53:48.891Z,956.78
2019-02-12T12:54:59.813Z,956.78
2019-02-12T12:56:05.123Z,956.76
2019-02-12T12:57:13.092Z,956.79
2019-02-12T12:58:21.144Z,956.87
2019-02-12T12:59:29.282Z,956.83
2019-02-12T13:00:37.258Z,956.86
2019-02-12T13:01:45.323Z,956.86
2019-02-12T13:02:53.389Z,956.81
2019-02-12T13:04:01.414Z,956.81
2019-02-12T13:05:10.954Z,956.74
2019-02-12T13:06:17.615Z,956.77
2019-02-12T13:07:25.614Z,956.75
2019-02-12T13:08:33.698Z,956.73
2019-02-12T13:09:41.747Z,956.74
2019-02-12T13:10:49.794Z,956.72
2019-02-12T13:11:57.874Z,956.73
2019-02-12T13:13:05.907Z,956.77
2019-02-12T13:14:13.994Z,956.76
2019-02-12T13:15:22.040Z,956.74
2019-02-12T13:16:30.928Z,956.81
2019-02-12T13:17:38.179Z,956.77
2019-02-12T13:18:46.220Z,956.77
2019-02-12T13:19:54.290Z,956.78
2019-02-12T13:21:02.335Z,956.78
2019-02-12T13:22:10.410Z,956.78
2019-02-12T13:23:18.577Z,956.83
2019-02-12T13:24:26.527Z,956.86
2019-02-12T13:25:34.587Z,956.89
2019-02-12T13:26:43.193Z,956.92
2019-02-12T13:27:50.734Z,956.92
2019-02-12T13:28:58.777Z,956.92
2019-02-12T13:30:06.819Z,956.97
2019-02-12T13:31:14.986Z,956.88
2019-02-12T13:32:22.961Z,956.93
2019-02-12T13:33:30.997Z,956.98
2019-02-12T13:34:39.105Z,957.00
2019-02-12T13:35:47.147Z,956.97
2019-02-12T13:36:55.241Z,956.99
2019-02-12T13:38:03.268Z,956.93
2019-02-12T13:39:11.401Z,956.97
2019-02-12T13:40:19.384Z,956.96
2019-02-12T13:41:27.533Z,956.95
2019-02-12T13:42:35.500Z,956.91
2019-02-12T13:43:43.576Z,956.89
2019-02-12T13:44:51.733Z,956.92
2019-02-12T13:45:59.688Z,956.88
2019-02-12T13:47:07.848Z,956.92
2019-02-12T13:48:15.812Z,956.96
2019-02-12T13:49:24.218Z,956.97
2019-02-12T13:50:31.902Z,957.00
2019-02-12T13:51:40.036Z,957.03
2019-02-12T13:52:48.058Z,957.00
2019-02-12T13:53:56.101Z,956.99
2019-02-12T13:55:04.259Z,957.00
2019-02-12T13:56:12.275Z,957.01
2019-02-12T13:57:20.341Z,956.97
2019-02-12T13:58:28.346Z,957.01
2019-02-12T13:59:36.410Z,957.03
2019-02-12T14:00:44.476Z,957.01
2019-02-12T14:01:52.573Z,957.00
2019-02-12T14:03:00.563Z,957.03
2019-02-12T14:04:08.670Z,957.00
2019-02-12T14:05:16.710Z,957.04
2019-02-12T14:06:24.877Z,957.02
2019-02-12T14:07:32.905Z,957.06
2019-02-12T14:08:40.889Z,957.04